Time;durP1;ratioP1;P1;durP2;ratioP2;P2;SDS_P1;SDS_P2;PMS_P1;PMS_P2;Temp;Humidity;BMP_temperature;BMP_pressure;BME280_temperature;BME280_humidity;BME280_pressure;Samples;Min_cycle;Max_cycle;Signal;HPM_P1;HPM_P2
2022/04/03 00:01:56;;;;;;;18.45;9.63;;;;;;;;;;4995348;28;20034;-94
2022/04/03 00:07:37;;;;;;;26.85;10.00;;;;;;;;;;4988941;28;20122;-95
2022/04/03 00:10:09;;;;;;;24.65;10.73;;;;;;;;;;4998084;28;20037;-94
2022/04/03 00:12:56;;;;;;;30.58;11.52;;;;;;;;;;4998509;28;20034;-91
2022/04/03 00:15:25;;;;;;;29.88;11.55;;;;;;;;;;4998875;28;20022;-95
2022/04/03 00:17:54;;;;;;;20.05;9.25;;;;;;;;;;5001516;28;20479;-94
2022/04/03 00:20:35;;;;;;;22.67;11.75;;;;;;;;;;5007773;28;20406;-94
2022/04/03 00:23:12;;;;;;;;;;;;;;;;;;;;;
2022/04/03 00:25:48;;;;;;;21.70;10.32;;;;;;;;;;5013694;28;20049;-93
2022/04/03 00:28:26;;;;;;;28.52;11.88;;;;;;;;;;5239070;23;20043;-96
2022/04/03 00:30:59;;;;;;;23.77;12.10;;;;;;;;;;4996960;28;20022;-93
2022/04/03 00:33:34;;;;;;;19.33;9.97;;;;;;;;;;4998247;28;20034;-93
2022/04/03 00:36:12;;;;;;;26.13;12.02;;;;;;;;;;4998031;28;20253;-95
2022/04/03 00:38:45;;;;;;;32.75;12.18;;;;;;;;;;4938652;28;20035;-93
2022/04/03 00:41:24;;;;;;;27.25;10.98;;;;;;;;;;4994422;28;20046;-93
2022/04/03 00:44:09;;;;;;;24.73;11.52;;;;;;;;;;4998187;28;20031;-95
2022/04/03 00:46:36;;;;;;;25.45;11.80;;;;;;;;;;4989955;28;20034;-91
2022/04/03 00:49:11;;;;;;;22.48;10.88;;;;;;;;;;4960151;29;20034;-94
2022/04/03 00:51:46;;;;;;;22.52;10.05;;;;;;;;;;4959835;29;20031;-94
2022/04/03 00:54:21;;;;;;;27.80;11.82;;;;;;;;;;4959730;29;20521;-94
2022/04/03 00:57:04;;;;;;;28.10;10.85;;;;;;;;;;5020140;23;20532;-95
2022/04/03 01:00:01;;;;;;;24.00;11.00;;;;;;;;;;4980721;28;20035;-94
2022/04/03 01:02:27;;;;;;;26.42;10.25;;;;;;;;;;4905672;29;20048;-95
2022/04/03 01:05:13;;;;;;;27.02;9.93;;;;;;;;;;4921014;29;20036;-93
2022/04/03 01:07:40;;;;;;;22.55;9.57;;;;;;;;;;4908514;29;20040;-95
2022/04/03 01:10:15;;;;;;;24.88;10.77;;;;;;;;;;4905390;29;20040;-93
2022/04/03 01:12:54;;;;;;;20.60;8.68;;;;;;;;;;4905746;29;20032;-94
2022/04/03 01:15:35;;;;;;;17.92;7.10;;;;;;;;;;4904497;29;20051;-91
2022/04/03 01:18:05;;;;;;;15.13;5.75;;;;;;;;;;4903560;29;20115;-94
2022/04/03 01:20:48;;;;;;;22.13;7.18;;;;;;;;;;4902222;29;20453;-94
2022/04/03 01:23:17;;;;;;;14.38;5.93;;;;;;;;;;4903475;29;20091;-91
2022/04/03 01:34:56;;;;;;;20.23;5.45;;;;;;;;;;4957930;29;20152;-93
2022/04/03 01:41:03;;;;;;;10.80;4.27;;;;;;;;;;4900227;29;20178;-91
2022/04/03 01:46:26;;;;;;;27.77;4.47;;;;;;;;;;4900175;29;20414;-94
2022/04/03 01:48:55;;;;;;;16.15;4.43;;;;;;;;;;4884349;29;20028;-91
2022/04/03 01:51:27;;;;;;;19.98;4.90;;;;;;;;;;4912109;29;20429;-93
2022/04/03 01:54:02;;;;;;;26.88;4.78;;;;;;;;;;4973060;28;20038;-94
2022/04/03 01:56:41;;;;;;;14.80;3.15;;;;;;;;;;4982299;28;20504;-94
2022/04/03 01:59:21;;;;;;;;;;;;;;;;;;;;;
2022/04/03 02:01:51;;;;;;;14.05;5.05;;;;;;;;;;4978972;28;20049;-94
2022/04/03 02:04:20;;;;;;;15.77;5.20;;;;;;;;;;4975911;28;20066;-94
2022/04/03 02:07:21;;;;;;;21.90;4.82;;;;;;;;;;4975948;28;20073;-94
2022/04/03 02:09:53;;;;;;;22.05;3.33;;;;;;;;;;4960683;28;20031;-95
2022/04/03 02:12:30;;;;;;;21.27;3.75;;;;;;;;;;4960866;28;20121;-94
2022/04/03 02:15:31;;;;;;;38.42;5.25;;;;;;;;;;4962329;28;20026;-95
2022/04/03 02:17:58;;;;;;;10.85;3.00;;;;;;;;;;5167888;23;20030;-93
2022/04/03 02:20:49;;;;;;;10.68;3.05;;;;;;;;;;5009173;28;20030;-94
2022/04/03 02:23:16;;;;;;;9.00;3.45;;;;;;;;;;4996434;28;20046;-93
2022/04/03 02:25:54;;;;;;;18.90;3.50;;;;;;;;;;4978544;28;20035;-94
2022/04/03 02:31:14;;;;;;;15.48;2.90;;;;;;;;;;5043049;23;20061;-93
2022/04/03 02:33:49;;;;;;;11.60;2.88;;;;;;;;;;4997824;28;20057;-94
2022/04/03 02:36:18;;;;;;;11.85;2.55;;;;;;;;;;4998434;28;20033;-95
2022/04/03 02:39:10;;;;;;;14.32;3.20;;;;;;;;;;4999306;28;20029;-94
2022/04/03 02:41:40;;;;;;;6.05;2.22;;;;;;;;;;4998304;28;20042;-95
2022/04/03 02:44:16;;;;;;;10.32;2.92;;;;;;;;;;4998617;28;20036;-95
2022/04/03 02:49:58;;;;;;;14.83;3.10;;;;;;;;;;5017058;28;20089;-94
2022/04/03 02:52:39;;;;;;;14.88;3.03;;;;;;;;;;5000813;28;20304;-94
2022/04/03 02:55:27;;;;;;;6.07;2.72;;;;;;;;;;5079789;23;20015;-94
2022/04/03 02:57:56;;;;;;;19.42;3.33;;;;;;;;;;4998395;28;20449;-94
2022/04/03 03:00:46;;;;;;;7.20;2.70;;;;;;;;;;4997757;28;20088;-96
2022/04/03 03:03:23;;;;;;;12.85;3.17;;;;;;;;;;4997911;28;20041;-93
2022/04/03 03:05:49;;;;;;;11.75;2.78;;;;;;;;;;4998529;28;20470;-93
2022/04/03 03:08:31;;;;;;;9.95;2.60;;;;;;;;;;4999233;28;20124;-95
2022/04/03 03:11:26;;;;;;;11.32;3.17;;;;;;;;;;4982523;28;20030;-94
2022/04/03 03:13:55;;;;;;;7.93;2.90;;;;;;;;;;4920355;29;20036;-95
2022/04/03 03:16:25;;;;;;;16.05;2.33;;;;;;;;;;4920891;29;20417;-92
2022/04/03 03:18:51;;;;;;;7.15;2.88;;;;;;;;;;4924350;29;20043;-95
2022/04/03 03:21:29;;;;;;;6.28;2.80;;;;;;;;;;4927789;29;20036;-93
2022/04/03 03:24:02;;;;;;;10.93;3.42;;;;;;;;;;4944547;28;20124;-94
2022/04/03 03:26:31;;;;;;;10.40;3.22;;;;;;;;;;5001564;28;20026;-96
2022/04/03 03:37:39;;;;;;;7.22;3.03;;;;;;;;;;4934934;29;20110;-95
2022/04/03 03:43:22;;;;;;;12.95;3.08;;;;;;;;;;4908713;29;20032;-96
2022/04/03 03:46:17;;;;;;;11.90;4.32;;;;;;;;;;4902200;29;20031;-95
2022/04/03 03:48:47;;;;;;;8.45;2.53;;;;;;;;;;4990417;28;20038;-93
2022/04/03 03:53:52;;;;;;;11.00;2.42;;;;;;;;;;5201930;23;20056;-93
2022/04/03 03:56:27;;;;;;;20.20;2.53;;;;;;;;;;5020715;28;20034;-93
2022/04/03 03:59:14;;;;;;;5.35;2.88;;;;;;;;;;5018752;28;20121;-93
2022/04/03 04:01:54;;;;;;;8.23;2.88;;;;;;;;;;5040688;23;20050;-94
2022/04/03 04:04:35;;;;;;;14.48;3.17;;;;;;;;;;4994943;28;20022;-95
2022/04/03 04:07:17;;;;;;;8.35;2.42;;;;;;;;;;4995120;28;20041;-93
2022/04/03 04:09:43;;;;;;;11.13;2.50;;;;;;;;;;4994005;28;20034;-93
2022/04/03 04:18:36;;;;;;;13.18;3.03;;;;;;;;;;4995229;28;20057;-93
2022/04/03 04:21:32;;;;;;;9.68;2.22;;;;;;;;;;4992986;28;20038;-92
2022/04/03 04:24:14;;;;;;;15.65;3.03;;;;;;;;;;4997954;28;20034;-94
2022/04/03 04:26:41;;;;;;;9.32;3.08;;;;;;;;;;4993138;28;20128;-94
2022/04/03 04:29:28;;;;;;;14.73;3.85;;;;;;;;;;4993716;28;20019;-93
2022/04/03 04:32:23;;;;;;;15.30;3.13;;;;;;;;;;4993907;28;20048;-94
2022/04/03 04:34:53;;;;;;;12.45;2.85;;;;;;;;;;4987847;28;20039;-94
2022/04/03 04:37:34;;;;;;;6.68;2.78;;;;;;;;;;4994708;28;20056;-94
2022/04/03 04:40:23;;;;;;;19.88;3.63;;;;;;;;;;4998231;28;20033;-93
2022/04/03 04:42:52;;;;;;;11.23;3.40;;;;;;;;;;4979784;28;20492;-94
2022/04/03 04:48:13;;;;;;;10.00;3.05;;;;;;;;;;4978282;28;20039;-91
2022/04/03 04:50:43;;;;;;;7.72;3.05;;;;;;;;;;4993576;28;20026;-94
2022/04/03 04:53:13;;;;;;;9.40;3.28;;;;;;;;;;4992793;28;20042;-90
2022/04/03 04:55:45;;;;;;;10.90;3.10;;;;;;;;;;4993638;28;20034;-93
2022/04/03 04:58:18;;;;;;;7.75;3.90;;;;;;;;;;4996754;28;20109;-94
2022/04/03 05:01:04;;;;;;;8.50;3.70;;;;;;;;;;4995781;28;20137;-92
2022/04/03 05:03:39;;;;;;;11.77;3.67;;;;;;;;;;4997314;28;20030;-93
2022/04/03 05:06:15;;;;;;;8.98;3.40;;;;;;;;;;5000687;28;20052;-94
2022/04/03 05:41:34;;;;;;;8.13;2.93;;;;;;;;;;5046827;28;20064;-96
2022/04/03 05:58:30;;;;;;;12.70;2.97;;;;;;;;;;5454619;23;20053;-96
2022/04/03 07:26:22;;;;;;;7.18;2.50;;;;;;;;;;5918841;23;21812;-94
2022/04/03 07:43:20;;;;;;;4.97;3.03;;;;;;;;;;5028173;28;20049;-92
2022/04/03 08:43:54;;;;;;;6.85;1.92;;;;;;;;;;5659214;23;20073;-95
2022/04/03 08:56:13;;;;;;;10.43;3.65;;;;;;;;;;5031752;28;20104;-95
2022/04/03 08:58:42;;;;;;;7.60;2.67;;;;;;;;;;5009097;28;20038;-96
2022/04/03 11:37:00;;;;;;;7.45;3.08;;;;;;;;;;4947693;29;20408;-96
2022/04/03 11:40:07;;;;;;;5.93;2.75;;;;;;;;;;4927276;29;20031;-95
2022/04/03 11:43:13;;;;;;;7.13;3.70;;;;;;;;;;4960367;28;20048;-96
2022/04/03 14:37:13;;;;;;;7.15;2.90;;;;;;;;;;6073007;23;20021;31
2022/04/03 17:14:09;;;;;;;;;;;;;;;;;;;;;
2022/04/03 18:08:40;;;;;;;10.70;3.63;;;;;;;;;;4800245;23;20021;-94
2022/04/03 18:11:45;;;;;;;;;;;;;;;;;;;;;
2022/04/03 18:14:24;;;;;;;8.82;3.90;;;;;;;;;;4934961;29;20144;-94
2022/04/03 18:22:58;;;;;;;6.70;2.95;;;;;;;;;;5302843;23;20137;-93
2022/04/03 18:25:33;;;;;;;6.13;2.65;;;;;;;;;;4982017;28;20037;-95
2022/04/03 18:31:26;;;;;;;7.55;3.13;;;;;;;;;;5003104;28;20505;-92
2022/04/03 18:34:18;;;;;;;4.68;2.47;;;;;;;;;;4987773;28;20056;-93
2022/04/03 18:39:48;;;;;;;6.00;2.78;;;;;;;;;;5049243;23;20114;-93
2022/04/03 18:42:20;;;;;;;7.32;3.40;;;;;;;;;;4964472;28;20030;-93
2022/04/03 18:50:02;;;;;;;8.43;3.20;;;;;;;;;;5098236;23;20061;-94
2022/04/03 20:38:26;;;;;;;24.08;7.72;;;;;;;;;;4935905;29;20042;-93
2022/04/03 20:41:11;;;;;;;29.42;8.77;;;;;;;;;;4941613;29;20108;-92
2022/04/03 20:43:50;;;;;;;17.95;6.93;;;;;;;;;;4933996;29;20028;-92
2022/04/03 22:01:31;;;;;;;21.08;8.23;;;;;;;;;;5010065;28;20050;-96
2022/04/03 22:22:30;;;;;;;24.63;10.57;;;;;;;;;;5293368;23;20030;-96
2022/04/03 22:35:41;;;;;;;;;;;;;;;;;;;;;
2022/04/03 22:38:27;;;;;;;;;;;;;;;;;;;;;
2022/04/03 22:41:14;;;;;;;42.40;17.13;;;;;;;;;;4924323;29;20036;-95
2022/04/03 22:43:44;;;;;;;43.60;17.55;;;;;;;;;;4910990;29;20020;-96
2022/04/03 22:55:44;;;;;;;40.53;16.80;;;;;;;;;;4926253;29;20035;-93
2022/04/03 22:58:16;;;;;;;43.28;17.05;;;;;;;;;;4912304;29;20040;-96
2022/04/03 23:36:59;;;;;;;;;;;;;;;;;;;;;
2022/04/03 23:42:58;;;;;;;14.40;5.80;;;;;;;;;;4929761;29;20074;-93
